Time;durP1;ratioP1;P1;durP2;ratioP2;P2;SDS_P1;SDS_P2;PMS_P1;PMS_P2;Temp;Humidity;BMP_temperature;BMP_pressure;BME280_temperature;BME280_humidity;BME280_pressure;Samples;Min_cycle;Max_cycle;Signal;HPM_P1;HPM_P2
2023/06/26 00:01:50;;;;;;;13.52;12.18;;;19.60;85.40;;;;;;4976435;28;20232;-86
2023/06/26 00:04:15;;;;;;;14.45;12.93;;;19.60;85.60;;;;;;4975558;28;20202;-85
2023/06/26 00:06:41;;;;;;;15.25;13.65;;;19.50;85.60;;;;;;4976859;28;20182;-85
2023/06/26 00:09:07;;;;;;;14.60;13.10;;;19.50;85.70;;;;;;4976727;28;20661;-86
2023/06/26 00:11:33;;;;;;;13.88;12.52;;;19.50;85.70;;;;;;4977056;28;20514;-86
2023/06/26 00:14:01;;;;;;;14.57;12.85;;;19.40;85.90;;;;;;4975407;28;20217;-86
2023/06/26 00:16:27;;;;;;;13.27;11.85;;;19.40;86.10;;;;;;4975408;28;20179;-85
2023/06/26 00:18:53;;;;;;;13.05;11.85;;;19.30;86.20;;;;;;4975490;28;20182;-86
2023/06/26 00:21:19;;;;;;;12.23;11.13;;;19.30;86.20;;;;;;4976632;28;20179;-86
2023/06/26 00:23:45;;;;;;;15.10;12.05;;;19.40;86.20;;;;;;4975308;28;20674;-86
2023/06/26 00:26:11;;;;;;;13.38;12.18;;;19.40;86.00;;;;;;4975284;28;20179;-85
2023/06/26 00:28:37;;;;;;;14.38;13.02;;;19.50;85.80;;;;;;4976093;28;20179;-86
2023/06/26 00:31:03;;;;;;;14.90;13.13;;;19.50;85.70;;;;;;4975164;28;20297;-86
2023/06/26 00:33:29;;;;;;;17.23;13.98;;;19.50;85.70;;;;;;4975147;28;20245;-85
2023/06/26 00:35:54;;;;;;;15.18;13.43;;;19.50;85.40;;;;;;4975756;28;20270;-86
2023/06/26 00:38:20;;;;;;;17.13;13.48;;;19.50;85.50;;;;;;4975079;28;20170;-86
2023/06/26 00:40:46;;;;;;;18.13;13.05;;;19.40;85.60;;;;;;4975080;28;20178;-86
2023/06/26 00:43:12;;;;;;;15.25;13.85;;;19.50;85.60;;;;;;4975190;28;20298;-85
2023/06/26 00:45:37;;;;;;;14.13;12.88;;;19.40;85.60;;;;;;4974908;28;20182;-86
2023/06/26 00:48:03;;;;;;;14.02;12.75;;;19.40;85.70;;;;;;4974799;28;20178;-86
2023/06/26 00:50:29;;;;;;;13.93;12.70;;;19.30;85.60;;;;;;4976003;28;20194;-86
2023/06/26 00:53:00;;;;;;;14.73;13.23;;;19.30;85.60;;;;;;4974905;28;20235;-86
2023/06/26 00:55:26;;;;;;;14.93;13.45;;;19.40;85.60;;;;;;4976460;28;20166;-86
2023/06/26 00:57:52;;;;;;;15.52;13.93;;;19.40;85.50;;;;;;4975983;28;20174;-86
2023/06/26 01:00:18;;;;;;;14.80;13.40;;;19.40;85.50;;;;;;4974706;28;20179;-86
2023/06/26 01:02:44;;;;;;;14.85;13.43;;;19.40;85.30;;;;;;4974540;28;20214;-86
2023/06/26 01:05:12;;;;;;;18.55;14.77;;;19.30;85.30;;;;;;4974588;28;20270;-86
2023/06/26 01:07:39;;;;;;;17.50;14.27;;;19.30;85.30;;;;;;4974534;28;20183;-86
2023/06/26 01:10:06;;;;;;;16.27;13.88;;;19.30;85.30;;;;;;4974399;28;20198;-86
2023/06/26 01:12:33;;;;;;;14.73;13.23;;;19.30;85.40;;;;;;4973221;28;20194;-86
2023/06/26 01:14:59;;;;;;;15.55;14.15;;;19.30;85.50;;;;;;4974376;28;20717;-86
2023/06/26 01:17:31;;;;;;;15.35;13.98;;;19.30;85.50;;;;;;4975844;28;20540;-86
2023/06/26 01:20:01;;;;;;;14.85;13.55;;;19.20;85.60;;;;;;4974359;28;20167;-86
2023/06/26 01:22:29;;;;;;;15.30;13.70;;;19.20;85.50;;;;;;4974177;28;20213;-85
2023/06/26 01:24:58;;;;;;;15.68;14.05;;;19.20;85.60;;;;;;4974349;28;20183;-86
2023/06/26 01:27:25;;;;;;;14.80;13.27;;;19.10;85.60;;;;;;4974208;28;20186;-86
2023/06/26 01:29:52;;;;;;;14.85;13.25;;;19.00;85.50;;;;;;4974121;28;20195;-86
2023/06/26 01:32:18;;;;;;;17.80;13.75;;;19.00;85.60;;;;;;4974186;28;20194;-85
2023/06/26 01:34:45;;;;;;;21.98;13.80;;;19.00;85.60;;;;;;4975465;28;20175;-86
2023/06/26 01:37:10;;;;;;;15.95;14.32;;;19.10;85.60;;;;;;4974073;28;20186;-86
2023/06/26 01:39:36;;;;;;;15.60;13.88;;;19.00;85.60;;;;;;4974021;28;20174;-86
2023/06/26 01:42:02;;;;;;;15.73;14.15;;;19.00;85.60;;;;;;4973953;28;20201;-86
2023/06/26 01:44:29;;;;;;;19.92;14.63;;;18.90;85.70;;;;;;4975051;28;20577;-86
2023/06/26 01:47:03;;;;;;;15.77;14.38;;;18.90;85.70;;;;;;4973898;28;20205;-86
2023/06/26 01:49:49;;;;;;;18.23;15.45;;;19.00;85.70;;;;;;4973634;28;20226;-86
2023/06/26 01:52:24;;;;;;;15.75;14.05;;;18.90;85.70;;;;;;4974853;28;20190;-85
2023/06/26 01:55:00;;;;;;;19.50;14.70;;;18.90;85.60;;;;;;4973735;28;20166;-86
2023/06/26 01:57:26;;;;;;;17.15;15.50;;;18.90;85.60;;;;;;4973713;28;20170;-86
2023/06/26 01:59:53;;;;;;;16.42;14.73;;;18.90;85.70;;;;;;4973725;28;20214;-86
2023/06/26 02:02:18;;;;;;;16.67;14.88;;;18.80;85.80;;;;;;4974770;28;20179;-85
2023/06/26 02:04:44;;;;;;;18.45;15.10;;;18.80;85.70;;;;;;4973527;28;20171;-86
2023/06/26 02:07:09;;;;;;;16.60;14.85;;;18.70;85.70;;;;;;4974801;28;20659;-86
2023/06/26 02:09:35;;;;;;;17.73;14.45;;;18.70;85.80;;;;;;4973340;28;20202;-86
2023/06/26 02:12:00;;;;;;;18.63;14.80;;;18.60;85.90;;;;;;4974627;28;20178;-86
2023/06/26 02:14:26;;;;;;;18.95;15.65;;;18.60;86.10;;;;;;4974852;28;20194;-86
2023/06/26 02:16:51;;;;;;;22.30;15.20;;;18.60;86.20;;;;;;4973350;28;20171;-86
2023/06/26 02:19:21;;;;;;;16.13;13.60;;;18.60;86.20;;;;;;4974477;28;20179;-86
2023/06/26 02:21:48;;;;;;;14.93;13.52;;;18.50;86.40;;;;;;4973645;28;20171;-86
2023/06/26 02:24:14;;;;;;;15.57;14.07;;;18.50;86.40;;;;;;4974170;28;20226;-86
2023/06/26 02:26:39;;;;;;;16.38;14.15;;;18.50;86.40;;;;;;4973209;28;20198;-86
2023/06/26 02:29:05;;;;;;;19.33;14.20;;;18.50;86.30;;;;;;4973266;28;20182;-86
2023/06/26 02:31:30;;;;;;;19.85;14.23;;;18.50;86.20;;;;;;4974506;28;20285;-86
2023/06/26 02:33:55;;;;;;;20.75;14.95;;;18.50;86.10;;;;;;4973069;28;20285;-85
2023/06/26 02:36:21;;;;;;;18.88;15.38;;;18.50;86.10;;;;;;4973159;28;20225;-86
2023/06/26 02:38:46;;;;;;;16.00;14.45;;;18.60;86.10;;;;;;4974667;28;20539;-86
2023/06/26 02:41:12;;;;;;;26.17;14.10;;;18.60;86.10;;;;;;4974380;28;20181;-86
2023/06/26 02:43:37;;;;;;;15.30;13.68;;;18.60;86.20;;;;;;4973210;28;20213;-86
2023/06/26 02:46:03;;;;;;;16.40;14.73;;;18.60;86.10;;;;;;4974413;28;20186;-86
2023/06/26 02:48:28;;;;;;;15.65;14.13;;;18.60;86.20;;;;;;4973035;28;20179;-86
2023/06/26 02:50:54;;;;;;;15.18;13.80;;;18.60;86.10;;;;;;4974150;28;20217;-86
2023/06/26 02:53:19;;;;;;;15.13;13.52;;;18.50;86.10;;;;;;4972849;28;20589;-86
2023/06/26 02:55:47;;;;;;;15.77;14.27;;;18.40;86.00;;;;;;4972916;28;20666;-86
2023/06/26 02:58:13;;;;;;;15.95;14.25;;;18.50;86.10;;;;;;4974438;28;20758;-86
2023/06/26 03:00:41;;;;;;;18.58;14.70;;;18.40;86.20;;;;;;4974165;28;20183;-86
2023/06/26 03:03:09;;;;;;;15.13;13.73;;;18.50;86.20;;;;;;4973173;28;20286;-86
2023/06/26 03:05:35;;;;;;;18.92;14.00;;;18.40;86.20;;;;;;4974070;28;20549;-86
2023/06/26 03:08:01;;;;;;;15.20;13.05;;;18.40;86.20;;;;;;4972881;28;20175;-86
2023/06/26 03:10:27;;;;;;;17.67;14.00;;;18.40;86.20;;;;;;4972630;28;20194;-86
2023/06/26 03:12:52;;;;;;;18.58;13.85;;;18.60;86.50;;;;;;4972692;28;20323;-85
2023/06/26 03:15:19;;;;;;;23.63;14.77;;;18.60;86.10;;;;;;4973398;28;20175;-86
2023/06/26 03:17:44;;;;;;;21.38;15.68;;;18.70;86.00;;;;;;4972815;28;20214;-86
2023/06/26 03:20:10;;;;;;;24.13;14.90;;;18.70;85.80;;;;;;4973918;28;20179;-86
2023/06/26 03:22:36;;;;;;;20.08;14.32;;;18.70;85.50;;;;;;4973115;28;20762;-85
2023/06/26 03:25:02;;;;;;;16.67;13.20;;;18.70;85.40;;;;;;4972830;28;20179;-86
2023/06/26 03:27:28;;;;;;;16.73;14.18;;;18.70;85.40;;;;;;4972620;28;20210;-86
2023/06/26 03:29:53;;;;;;;20.23;13.57;;;18.70;85.30;;;;;;4973793;28;20230;-86
2023/06/26 03:32:19;;;;;;;15.75;14.07;;;18.60;85.30;;;;;;4972556;28;20226;-86
2023/06/26 03:34:44;;;;;;;17.40;14.75;;;18.60;85.60;;;;;;4972588;28;20310;-86
2023/06/26 03:37:10;;;;;;;17.60;13.73;;;18.60;85.80;;;;;;4976109;28;20558;-86
2023/06/26 03:39:36;;;;;;;14.20;12.80;;;18.50;85.90;;;;;;4977320;28;20178;-86
2023/06/26 03:42:01;;;;;;;16.92;14.00;;;18.50;86.00;;;;;;4976128;28;20189;-86
2023/06/26 03:44:27;;;;;;;18.17;14.13;;;18.60;86.00;;;;;;4976102;28;20261;-86
2023/06/26 03:46:53;;;;;;;14.68;13.25;;;18.60;86.00;;;;;;4975964;28;20657;-86
2023/06/26 03:49:19;;;;;;;15.73;14.13;;;18.70;86.00;;;;;;4977161;28;20182;-86
2023/06/26 03:51:45;;;;;;;18.10;13.75;;;18.80;85.90;;;;;;4975951;28;20222;-86
2023/06/26 03:54:10;;;;;;;18.23;13.93;;;18.90;85.80;;;;;;4975777;28;20210;-85
2023/06/26 03:56:36;;;;;;;16.98;12.48;;;19.00;85.70;;;;;;4975778;28;20175;-86
2023/06/26 03:59:02;;;;;;;18.20;13.40;;;19.10;85.60;;;;;;4975817;28;20665;-86
2023/06/26 04:01:28;;;;;;;20.20;13.45;;;19.10;85.60;;;;;;4975883;28;20179;-86
2023/06/26 04:03:54;;;;;;;15.85;13.27;;;19.10;85.50;;;;;;4975851;28;20584;-86
2023/06/26 04:06:19;;;;;;;15.70;12.85;;;19.20;85.50;;;;;;4975625;28;20179;-86
2023/06/26 04:08:45;;;;;;;15.90;12.65;;;19.20;85.40;;;;;;4975633;28;20555;-86
2023/06/26 04:11:10;;;;;;;19.15;12.45;;;19.30;85.50;;;;;;4975594;28;20205;-86
2023/06/26 04:13:36;;;;;;;14.10;12.70;;;19.30;85.40;;;;;;4976953;28;20222;-85
2023/06/26 04:16:02;;;;;;;15.07;12.57;;;19.50;85.30;;;;;;4976709;28;20213;-86
2023/06/26 04:18:27;;;;;;;16.45;12.82;;;19.60;85.20;;;;;;4975530;28;20171;-86
2023/06/26 04:21:12;;;;;;;17.95;12.38;;;19.70;84.70;;;;;;4976228;28;20685;-86
2023/06/26 04:23:40;;;;;;;13.73;12.38;;;19.80;84.60;;;;;;4976813;28;20682;-86
2023/06/26 04:26:06;;;;;;;13.63;11.15;;;19.80;84.40;;;;;;4975247;28;20179;-86
2023/06/26 04:28:36;;;;;;;14.30;12.15;;;19.80;84.40;;;;;;4975289;28;20214;-86
2023/06/26 04:31:04;;;;;;;13.77;12.00;;;19.80;84.30;;;;;;4975123;28;20198;-86
2023/06/26 04:33:30;;;;;;;16.15;11.32;;;19.80;84.30;;;;;;4976340;28;20187;-86
2023/06/26 04:35:56;;;;;;;14.02;12.52;;;19.90;84.40;;;;;;4975235;28;20190;-86
2023/06/26 04:38:21;;;;;;;13.90;12.60;;;20.00;84.30;;;;;;4975023;28;20175;-86
2023/06/26 04:40:47;;;;;;;14.30;12.85;;;20.10;84.60;;;;;;4976560;28;20186;-86
2023/06/26 04:43:13;;;;;;;17.35;12.10;;;20.10;84.60;;;;;;4974948;28;20280;-86
2023/06/26 04:45:39;;;;;;;14.70;13.05;;;20.10;84.60;;;;;;4975082;28;20254;-86
2023/06/26 04:48:05;;;;;;;25.90;12.98;;;20.20;84.60;;;;;;4974690;28;20179;-86
2023/06/26 04:50:33;;;;;;;15.40;12.10;;;20.20;84.60;;;;;;4976078;28;20236;-86
2023/06/26 04:52:59;;;;;;;14.02;11.50;;;20.20;84.10;;;;;;4974653;28;20689;-86
2023/06/26 04:55:25;;;;;;;12.90;11.70;;;20.20;84.30;;;;;;4975928;28;20182;-86
2023/06/26 04:57:50;;;;;;;13.20;11.90;;;20.30;84.20;;;;;;4976034;28;20195;-86
2023/06/26 05:00:16;;;;;;;13.48;12.18;;;20.30;83.70;;;;;;4974691;28;20217;-86
2023/06/26 05:02:42;;;;;;;13.23;11.82;;;20.30;83.50;;;;;;4974983;28;20206;-86
2023/06/26 05:05:07;;;;;;;12.45;11.15;;;20.30;83.40;;;;;;4974896;28;20214;-86
2023/06/26 05:07:33;;;;;;;12.73;11.52;;;20.40;83.40;;;;;;4976099;28;20183;-86
2023/06/26 05:09:58;;;;;;;12.77;11.48;;;20.40;83.10;;;;;;4974393;28;20234;-86
2023/06/26 05:12:24;;;;;;;12.15;10.90;;;20.50;83.10;;;;;;4974410;28;20277;-86
2023/06/26 05:14:50;;;;;;;13.73;11.20;;;20.60;83.20;;;;;;4974810;28;20179;-86
2023/06/26 05:17:15;;;;;;;12.02;10.77;;;20.70;82.90;;;;;;4974516;28;20178;-86
2023/06/26 05:19:41;;;;;;;12.93;10.73;;;20.70;83.10;;;;;;4975608;28;20621;-86
2023/06/26 05:22:07;;;;;;;12.32;11.13;;;20.80;82.70;;;;;;4974410;28;20189;-86
2023/06/26 05:24:37;;;;;;;12.23;11.02;;;20.90;82.30;;;;;;4974498;28;20207;-86
2023/06/26 05:27:03;;;;;;;12.73;11.40;;;21.00;81.90;;;;;;4975525;28;20646;-86
2023/06/26 05:29:33;;;;;;;12.65;11.27;;;21.10;81.30;;;;;;4974457;28;20183;-86
2023/06/26 05:31:59;;;;;;;11.63;10.43;;;21.20;80.80;;;;;;4974303;28;20174;-86
2023/06/26 05:34:28;;;;;;;13.38;12.02;;;21.30;80.00;;;;;;4974046;28;20686;-86
2023/06/26 05:36:57;;;;;;;13.15;11.95;;;21.40;79.90;;;;;;4975572;28;20174;-86
2023/06/26 05:39:24;;;;;;;13.13;11.18;;;21.50;79.20;;;;;;4974067;28;20577;-86
2023/06/26 05:41:50;;;;;;;13.13;11.20;;;21.50;79.10;;;;;;4973922;28;20174;-86
2023/06/26 05:44:16;;;;;;;12.50;11.30;;;21.70;78.50;;;;;;4975133;28;20186;-86
2023/06/26 05:46:41;;;;;;;13.70;10.65;;;21.70;78.70;;;;;;4973934;28;20181;-86
2023/06/26 05:49:07;;;;;;;13.73;11.40;;;21.70;78.40;;;;;;4975118;28;20174;-86
2023/06/26 05:51:33;;;;;;;13.40;11.43;;;21.80;78.20;;;;;;4973860;28;20289;-86
2023/06/26 05:53:58;;;;;;;11.38;10.27;;;21.90;77.70;;;;;;4974087;28;20301;-86
2023/06/26 05:56:24;;;;;;;13.07;11.82;;;22.00;77.70;;;;;;4974382;28;20656;-86
2023/06/26 05:58:52;;;;;;;12.95;11.75;;;22.00;77.60;;;;;;4972993;28;20554;-86
2023/06/26 06:01:17;;;;;;;12.27;11.18;;;22.20;76.60;;;;;;4973662;28;20201;-86
2023/06/26 06:03:43;;;;;;;12.10;11.02;;;22.20;77.10;;;;;;4973662;28;20230;-86
2023/06/26 06:06:08;;;;;;;12.48;11.40;;;22.30;77.20;;;;;;4973722;28;20183;-86
2023/06/26 06:08:34;;;;;;;12.23;11.02;;;22.50;76.10;;;;;;4973529;28;20183;-86
2023/06/26 06:11:01;;;;;;;12.38;11.18;;;22.60;76.80;;;;;;4974771;28;20199;-87
2023/06/26 06:13:26;;;;;;;13.35;11.52;;;22.70;76.20;;;;;;4973588;28;20198;-86
2023/06/26 06:15:52;;;;;;;13.45;12.35;;;22.80;75.40;;;;;;4974644;28;20184;-86
2023/06/26 06:18:17;;;;;;;13.07;12.02;;;23.10;75.20;;;;;;4973628;28;20178;-86
2023/06/26 06:20:43;;;;;;;13.38;12.07;;;23.10;75.00;;;;;;4973382;28;20179;-87
2023/06/26 06:23:08;;;;;;;13.35;12.05;;;23.10;75.60;;;;;;4973377;28;20312;-86
2023/06/26 06:25:34;;;;;;;12.50;11.23;;;23.20;74.50;;;;;;4973428;28;20654;-86
2023/06/26 06:27:59;;;;;;;13.25;11.68;;;23.30;74.30;;;;;;4973423;28;20186;-86
2023/06/26 06:30:25;;;;;;;12.10;11.00;;;23.40;73.90;;;;;;4973569;28;20202;-86
2023/06/26 06:32:52;;;;;;;14.07;11.75;;;23.40;73.80;;;;;;4974508;28;20195;-86
2023/06/26 06:35:18;;;;;;;12.95;11.05;;;23.40;74.40;;;;;;4974698;28;20170;-86
2023/06/26 06:37:44;;;;;;;14.20;12.85;;;23.50;73.60;;;;;;4974398;28;20178;-86
2023/06/26 06:40:10;;;;;;;12.25;11.00;;;23.40;73.40;;;;;;4973239;28;20178;-87
2023/06/26 06:42:36;;;;;;;14.05;11.82;;;23.60;73.80;;;;;;4973402;28;20297;-87
2023/06/26 06:45:05;;;;;;;12.15;10.93;;;23.50;72.60;;;;;;4973257;28;20371;-86
2023/06/26 06:47:32;;;;;;;15.00;12.30;;;23.70;73.60;;;;;;4973169;28;20179;-86
2023/06/26 06:49:58;;;;;;;13.93;12.07;;;23.80;72.90;;;;;;4973033;28;20206;-86
2023/06/26 06:52:24;;;;;;;15.50;13.00;;;23.80;72.60;;;;;;4972831;28;20270;-86
2023/06/26 06:54:54;;;;;;;13.90;12.60;;;23.70;72.00;;;;;;4973028;28;20270;-87
2023/06/26 06:57:23;;;;;;;13.82;12.57;;;23.90;71.40;;;;;;4974288;28;20225;-86
2023/06/26 06:59:49;;;;;;;14.38;13.18;;;23.90;71.60;;;;;;4973046;28;20179;-86
2023/06/26 07:02:16;;;;;;;13.85;12.85;;;24.00;70.90;;;;;;4972927;28;20256;-86
2023/06/26 07:04:42;;;;;;;15.48;14.07;;;24.10;70.70;;;;;;4973374;28;20225;-86
2023/06/26 07:07:08;;;;;;;16.05;14.50;;;24.10;70.10;;;;;;4974430;28;20643;-87
2023/06/26 07:09:34;;;;;;;16.17;14.25;;;24.20;71.20;;;;;;4975732;28;20556;-86
2023/06/26 07:12:00;;;;;;;14.57;13.48;;;24.20;71.20;;;;;;4977996;28;20166;-86
2023/06/26 07:14:25;;;;;;;14.95;13.73;;;24.20;71.30;;;;;;4976722;28;20282;-86
2023/06/26 07:16:51;;;;;;;13.68;12.38;;;24.30;70.60;;;;;;4977932;28;20646;-86
2023/06/26 07:19:16;;;;;;;16.33;15.02;;;24.40;70.90;;;;;;4976605;28;20179;-86
2023/06/26 07:21:44;;;;;;;14.85;13.68;;;24.50;71.20;;;;;;4976555;28;20174;-86
2023/06/26 07:24:10;;;;;;;16.35;14.90;;;24.60;70.20;;;;;;4977775;28;20249;-86
2023/06/26 07:26:36;;;;;;;16.15;14.75;;;24.70;69.50;;;;;;4976796;28;20271;-86
2023/06/26 07:29:01;;;;;;;16.73;15.23;;;24.80;68.90;;;;;;4977624;28;20211;-86
2023/06/26 07:31:27;;;;;;;16.02;14.48;;;24.80;68.60;;;;;;4976343;28;20198;-86
2023/06/26 07:33:52;;;;;;;15.07;13.88;;;24.80;69.40;;;;;;4976349;28;20226;-86
2023/06/26 07:36:18;;;;;;;16.88;15.68;;;24.90;69.90;;;;;;4976307;28;20243;-86
2023/06/26 07:38:43;;;;;;;16.63;15.43;;;24.90;67.70;;;;;;4977758;28;20206;-86
2023/06/26 07:41:09;;;;;;;15.23;14.02;;;24.90;67.80;;;;;;4976728;28;20186;-86
2023/06/26 07:43:34;;;;;;;15.68;14.15;;;24.90;67.60;;;;;;4977352;28;20690;-86
2023/06/26 07:46:00;;;;;;;16.67;15.38;;;24.90;68.40;;;;;;4976973;28;20194;-87
2023/06/26 07:48:25;;;;;;;16.15;14.95;;;24.70;67.80;;;;;;4976597;28;20175;-87
2023/06/26 07:50:51;;;;;;;16.70;15.32;;;24.70;66.20;;;;;;4977827;28;20194;-87
2023/06/26 07:53:17;;;;;;;17.40;16.02;;;24.80;67.20;;;;;;4976407;28;20261;-87
2023/06/26 07:55:43;;;;;;;18.23;16.58;;;24.90;66.00;;;;;;4976389;28;20546;-87
2023/06/26 07:58:08;;;;;;;17.73;16.42;;;25.00;65.10;;;;;;4977124;28;20171;-87
2023/06/26 08:00:34;;;;;;;17.88;16.50;;;25.10;66.10;;;;;;4976005;28;20273;-87
2023/06/26 08:02:59;;;;;;;26.90;24.70;;;25.20;66.10;;;;;;4977095;28;20202;-86
2023/06/26 08:05:25;;;;;;;26.75;24.63;;;25.40;66.80;;;;;;4976982;28;20194;-87
2023/06/26 08:07:50;;;;;;;25.98;24.17;;;25.60;67.40;;;;;;4976067;28;20182;-86
2023/06/26 08:10:16;;;;;;;26.52;24.52;;;25.60;65.90;;;;;;4976948;28;20697;-86
2023/06/26 08:12:44;;;;;;;25.92;24.13;;;25.50;64.80;;;;;;4976093;28;20195;-86
2023/06/26 08:15:10;;;;;;;27.13;25.08;;;25.50;65.00;;;;;;4975663;28;20179;-86
2023/06/26 08:17:38;;;;;;;27.23;25.17;;;25.70;66.80;;;;;;4975920;28;20202;-86
2023/06/26 08:20:04;;;;;;;27.20;25.00;;;25.80;67.10;;;;;;4976966;28;20233;-86
2023/06/26 08:22:30;;;;;;;27.15;24.92;;;26.00;66.50;;;;;;4974886;28;20592;-86
2023/06/26 08:24:56;;;;;;;28.52;26.13;;;26.10;65.80;;;;;;4976669;28;20174;-86
2023/06/26 08:27:21;;;;;;;28.75;26.42;;;25.90;65.50;;;;;;4975369;28;20229;-86
2023/06/26 08:29:47;;;;;;;28.98;25.63;;;25.90;66.20;;;;;;4975800;28;20191;-86
2023/06/26 08:32:12;;;;;;;26.95;24.38;;;26.10;65.90;;;;;;4975387;28;20179;-86
2023/06/26 08:34:38;;;;;;;18.67;16.88;;;26.20;65.50;;;;;;4976579;28;20170;-86
2023/06/26 08:37:04;;;;;;;18.73;17.00;;;26.20;66.00;;;;;;4976473;28;20175;-86
2023/06/26 08:39:29;;;;;;;20.13;18.42;;;25.80;66.20;;;;;;4975267;28;20197;-86
2023/06/26 08:41:55;;;;;;;18.90;17.40;;;25.70;66.60;;;;;;4975261;28;20180;-86
2023/06/26 08:44:24;;;;;;;21.27;19.15;;;25.90;65.90;;;;;;4975161;28;20330;-86
2023/06/26 08:46:50;;;;;;;20.42;18.83;;;26.00;65.90;;;;;;4976564;28;20166;-86
2023/06/26 08:49:29;;;;;;;21.60;19.45;;;26.30;66.80;;;;;;4975217;28;20206;-86
2023/06/26 08:52:06;;;;;;;20.00;17.90;;;26.30;65.80;;;;;;4975105;28;20190;-86
2023/06/26 08:54:40;;;;;;;24.35;19.83;;;25.80;67.00;;;;;;4976166;28;20209;-86
2023/06/26 08:57:06;;;;;;;20.33;18.63;;;25.70;68.20;;;;;;4975956;28;20170;-87
2023/06/26 08:59:32;;;;;;;28.00;19.63;;;25.60;67.90;;;;;;4976364;28;20713;-86
2023/06/26 09:01:58;;;;;;;22.60;20.42;;;25.30;67.00;;;;;;4974943;28;20186;-86
2023/06/26 09:04:24;;;;;;;24.48;20.13;;;25.20;67.90;;;;;;4976208;28;20190;-86
2023/06/26 09:06:50;;;;;;;27.52;20.50;;;24.70;68.00;;;;;;4974879;28;20639;-86
2023/06/26 09:09:15;;;;;;;24.25;21.33;;;24.40;68.90;;;;;;4974825;28;20206;-87
2023/06/26 09:11:41;;;;;;;26.40;20.65;;;24.30;69.40;;;;;;4974798;28;20203;-86
2023/06/26 09:14:09;;;;;;;20.10;18.00;;;24.40;70.40;;;;;;4974572;28;20725;-87
2023/06/26 09:16:41;;;;;;;19.83;17.77;;;24.30;71.50;;;;;;4975994;28;20170;-86
2023/06/26 09:19:13;;;;;;;22.55;18.80;;;24.00;72.70;;;;;;4974723;28;20186;-86
2023/06/26 09:21:43;;;;;;;19.90;17.85;;;24.10;72.30;;;;;;4974867;28;20179;-86
2023/06/26 09:24:09;;;;;;;20.63;18.73;;;24.40;72.50;;;;;;4975862;28;20202;-86
2023/06/26 09:26:39;;;;;;;20.80;19.02;;;24.50;71.50;;;;;;4974709;28;20181;-86
2023/06/26 09:29:05;;;;;;;19.90;17.80;;;24.50;71.70;;;;;;4974878;28;20677;-86
2023/06/26 09:31:33;;;;;;;22.27;18.75;;;24.30;73.20;;;;;;4974535;28;20279;-86
2023/06/26 09:33:59;;;;;;;22.70;19.63;;;24.50;72.50;;;;;;4973383;28;20551;-86
2023/06/26 09:36:28;;;;;;;20.67;18.70;;;24.40;71.80;;;;;;4974670;28;20179;-86
2023/06/26 09:38:54;;;;;;;22.23;18.35;;;24.30;71.90;;;;;;4974682;28;20672;-86
2023/06/26 09:41:20;;;;;;;18.83;16.98;;;24.00;73.20;;;;;;4974243;28;20182;-86
2023/06/26 09:43:47;;;;;;;19.90;17.92;;;23.30;74.70;;;;;;4974222;28;20202;-86
2023/06/26 09:46:26;;;;;;;20.02;15.80;;;23.20;75.40;;;;;;4975400;28;20179;-86
2023/06/26 09:49:02;;;;;;;26.63;17.67;;;22.70;78.30;;;;;;4975091;28;20518;-85
2023/06/26 09:51:31;;;;;;;20.65;12.73;;;22.10;82.20;;;;;;4974219;28;20253;-85
2023/06/26 09:53:56;;;;;;;23.30;11.63;;;21.50;84.20;;;;;;4973788;28;20573;-85
2023/06/26 09:56:22;;;;;;;20.70;11.90;;;20.70;87.30;;;;;;4974579;28;20179;-85
2023/06/26 09:58:48;;;;;;;13.27;9.68;;;20.50;88.20;;;;;;4973533;28;20218;-86
2023/06/26 10:01:14;;;;;;;10.30;8.80;;;20.50;88.60;;;;;;4973709;28;20770;-85
2023/06/26 10:03:39;;;;;;;17.40;10.65;;;20.40;89.00;;;;;;4975242;28;20210;-86
2023/06/26 10:06:07;;;;;;;16.95;10.30;;;20.30;89.80;;;;;;4974511;28;20242;-86
2023/06/26 10:08:34;;;;;;;15.60;10.57;;;20.60;89.90;;;;;;4974283;28;20198;-87
2023/06/26 10:11:00;;;;;;;16.35;10.90;;;20.50;89.50;;;;;;4973850;28;20624;-86
2023/06/26 10:13:34;;;;;;;11.02;9.90;;;20.30;90.00;;;;;;4973663;28;20289;-86
2023/06/26 10:16:01;;;;;;;17.35;10.80;;;20.20;90.40;;;;;;4975389;28;20171;-86
2023/06/26 10:18:28;;;;;;;14.50;11.50;;;20.30;90.70;;;;;;4973508;28;20194;-86
2023/06/26 10:20:57;;;;;;;19.70;12.55;;;20.50;90.90;;;;;;4974806;28;20553;-86
2023/06/26 10:23:25;;;;;;;22.27;14.25;;;20.40;91.00;;;;;;4975102;28;20206;-86
2023/06/26 10:25:55;;;;;;;19.70;13.35;;;20.50;91.30;;;;;;4974884;28;20175;-86
2023/06/26 10:28:22;;;;;;;16.70;12.80;;;20.50;91.20;;;;;;4973424;28;20182;-86
2023/06/26 10:30:49;;;;;;;19.45;12.82;;;20.40;90.20;;;;;;4973489;28;20198;-86
2023/06/26 10:33:15;;;;;;;17.23;12.07;;;20.50;90.20;;;;;;4973329;28;20203;-86
2023/06/26 10:35:43;;;;;;;22.02;14.60;;;20.70;89.50;;;;;;4973452;28;20696;-86
2023/06/26 10:38:09;;;;;;;21.60;13.65;;;20.80;89.80;;;;;;4973435;28;20203;-86
2023/06/26 10:40:46;;;;;;;17.17;12.63;;;20.90;89.70;;;;;;4974473;28;20186;-86
2023/06/26 10:43:13;;;;;;;24.42;14.00;;;20.90;88.30;;;;;;4973001;28;20203;-86
2023/06/26 10:45:46;;;;;;;19.83;12.60;;;20.80;88.90;;;;;;4980003;28;20174;-86
2023/06/26 10:48:15;;;;;;;21.27;10.45;;;20.80;88.50;;;;;;4981085;28;20167;-85
2023/06/26 10:50:41;;;;;;;22.55;10.88;;;20.90;87.60;;;;;;4980705;28;20249;-86
2023/06/26 10:53:35;;;;;;;19.42;9.90;;;21.00;87.30;;;;;;4979506;28;20218;-86
2023/06/26 10:56:02;;;;;;;17.17;10.30;;;21.10;84.30;;;;;;4980756;28;20150;-85
2023/06/26 10:58:39;;;;;;;23.05;10.50;;;21.20;84.70;;;;;;4979485;28;20306;-86
2023/06/26 11:01:11;;;;;;;23.80;10.77;;;21.10;84.30;;;;;;4979425;28;20178;-85
2023/06/26 11:03:40;;;;;;;28.13;10.60;;;21.20;84.80;;;;;;4980633;28;20621;-85
2023/06/26 11:06:13;;;;;;;13.48;8.65;;;21.30;84.10;;;;;;4980740;28;20200;-86
2023/06/26 11:08:56;;;;;;;14.85;8.27;;;21.20;83.80;;;;;;4979481;28;20252;-86
2023/06/26 11:11:53;;;;;;;22.98;9.80;;;21.50;83.60;;;;;;4980592;28;20226;-85
2023/06/26 11:14:21;;;;;;;9.10;6.45;;;21.30;82.60;;;;;;4980400;28;20201;-86
2023/06/26 11:16:48;;;;;;;11.45;6.75;;;21.20;81.30;;;;;;4980609;28;20177;-86
2023/06/26 11:19:14;;;;;;;15.77;8.07;;;21.50;81.50;;;;;;4979242;28;20233;-86
2023/06/26 11:21:40;;;;;;;16.00;7.55;;;21.70;80.30;;;;;;4979281;28;20183;-86
2023/06/26 11:24:09;;;;;;;16.52;7.00;;;22.00;79.70;;;;;;4980486;28;20748;-86
2023/06/26 11:26:42;;;;;;;11.70;6.68;;;22.00;80.90;;;;;;4979380;28;20182;-86
2023/06/26 11:29:08;;;;;;;10.80;6.72;;;21.50;78.40;;;;;;4979078;28;20178;-86
2023/06/26 11:31:36;;;;;;;17.73;7.18;;;21.00;79.80;;;;;;4979057;28;20206;-85
2023/06/26 11:34:11;;;;;;;15.55;6.97;;;21.00;81.10;;;;;;4980326;28;20190;-86
2023/06/26 11:36:38;;;;;;;19.17;7.28;;;21.10;81.00;;;;;;4980670;28;20602;-86
2023/06/26 11:39:06;;;;;;;14.63;6.32;;;20.90;82.00;;;;;;4979254;28;20261;-85
2023/06/26 11:41:33;;;;;;;19.50;7.53;;;21.10;82.40;;;;;;4979155;28;20635;-86
2023/06/26 11:44:02;;;;;;;13.48;5.97;;;21.00;81.60;;;;;;4980138;28;20264;-85
2023/06/26 11:46:28;;;;;;;18.45;6.40;;;21.00;82.30;;;;;;4979169;28;20185;-86
2023/06/26 11:48:54;;;;;;;21.50;7.40;;;21.20;81.50;;;;;;4980319;28;20170;-85
2023/06/26 11:51:20;;;;;;;13.43;6.90;;;21.30;80.30;;;;;;4978995;28;20651;-85
2023/06/26 11:53:47;;;;;;;12.18;6.25;;;21.70;80.30;;;;;;4978808;28;20245;-86
2023/06/26 11:56:15;;;;;;;15.52;7.55;;;22.20;78.80;;;;;;4976863;28;20596;-85
2023/06/26 11:58:58;;;;;;;12.93;8.00;;;22.40;78.20;;;;;;4976202;28;20221;-85
2023/06/26 12:01:24;;;;;;;13.93;8.82;;;22.30;75.40;;;;;;4977428;28;20840;-85
2023/06/26 12:03:50;;;;;;;12.48;8.80;;;22.10;73.70;;;;;;4976055;28;20199;-85
2023/06/26 12:06:16;;;;;;;11.43;8.98;;;22.30;73.40;;;;;;4975763;28;20179;-85
2023/06/26 12:08:43;;;;;;;11.07;9.25;;;22.80;72.90;;;;;;4975653;28;20534;-85
2023/06/26 12:11:09;;;;;;;16.42;11.18;;;23.00;70.80;;;;;;4975630;28;20202;-85
2023/06/26 12:13:34;;;;;;;15.98;12.15;;;22.90;69.90;;;;;;4976815;28;20187;-85
2023/06/26 12:16:00;;;;;;;14.18;11.50;;;23.10;69.20;;;;;;4975540;28;20170;-85
2023/06/26 12:18:32;;;;;;;14.98;11.43;;;23.50;68.70;;;;;;4975514;28;20171;-85
2023/06/26 12:20:58;;;;;;;14.25;12.80;;;23.50;69.40;;;;;;4975499;28;20167;-85
2023/06/26 12:23:23;;;;;;;16.70;12.60;;;23.30;66.60;;;;;;4975544;28;20364;-85
2023/06/26 12:25:51;;;;;;;17.90;13.70;;;23.10;65.30;;;;;;4976583;28;20183;-85
2023/06/26 12:28:18;;;;;;;17.33;11.38;;;23.20;65.80;;;;;;4976605;28;20546;-85